createdAt,value
2023-04-02T00:00:24.552Z,88.02
2023-04-02T00:01:24.550Z,87.81
2023-04-02T00:02:24.571Z,87.81
2023-04-02T00:03:24.658Z,87.81
2023-04-02T00:04:24.565Z,88.12
2023-04-02T00:05:24.558Z,88.12
2023-04-02T00:06:24.544Z,88.37
2023-04-02T00:07:24.484Z,88.89
2023-04-02T00:08:24.468Z,88.89
2023-04-02T00:09:24.451Z,88.89
2023-04-02T00:10:24.440Z,88.78
2023-04-02T00:11:24.486Z,88.89
2023-04-02T00:12:24.414Z,88.78
2023-04-02T00:13:24.448Z,88.78
2023-04-02T00:14:24.404Z,88.68
2023-04-02T00:15:24.398Z,88.78
2023-04-02T00:16:24.434Z,88.78
2023-04-02T00:17:24.362Z,88.84
2023-04-02T00:18:24.377Z,88.02
2023-04-02T00:19:24.349Z,88.12
2023-04-02T00:20:24.325Z,88.43
2023-04-02T00:21:24.364Z,88.02
2023-04-02T00:22:24.319Z,88.02
2023-04-02T00:23:24.299Z,88.12
2023-04-02T00:24:24.325Z,87.81
2023-04-02T00:25:24.272Z,87.81
2023-04-02T00:26:24.282Z,87.92
2023-04-02T00:27:24.273Z,88.02
2023-04-02T00:28:24.240Z,87.92
2023-04-02T00:29:24.240Z,88.12
2023-04-02T00:30:24.230Z,88.02
2023-04-02T00:31:24.273Z,87.71
2023-04-02T00:32:24.203Z,87.50
2023-04-02T00:33:24.239Z,87.60
2023-04-02T00:34:24.213Z,87.71
2023-04-02T00:35:24.200Z,87.40
2023-04-02T00:36:24.202Z,87.50
2023-04-02T00:37:24.182Z,87.26
2023-04-02T00:38:24.201Z,87.05
2023-04-02T00:39:24.157Z,86.74
2023-04-02T00:40:24.132Z,86.94
2023-04-02T00:41:24.123Z,86.84
2023-04-02T00:42:24.116Z,87.05
2023-04-02T00:43:24.081Z,86.74
2023-04-02T00:44:24.075Z,86.53
2023-04-02T00:45:24.067Z,86.53
2023-04-02T00:46:24.292Z,86.22
2023-04-02T00:47:24.102Z,86.43
2023-04-02T00:48:24.055Z,86.32
2023-04-02T00:49:24.081Z,86.43
2023-04-02T00:50:24.071Z,86.63
2023-04-02T00:51:24.036Z,86.32
2023-04-02T00:52:23.989Z,86.53
2023-04-02T00:53:23.998Z,86.43
2023-04-02T00:54:24.016Z,86.43
2023-04-02T00:55:23.983Z,86.22
2023-04-02T00:56:23.971Z,86.02
2023-04-02T00:57:23.941Z,85.91
2023-04-02T00:58:23.949Z,86.32
2023-04-02T00:59:23.911Z,86.12
2023-04-02T01:00:23.950Z,86.22
2023-04-02T01:01:23.961Z,86.32
2023-04-02T01:02:23.945Z,86.22
2023-04-02T01:03:24.027Z,86.22
2023-04-02T01:04:23.893Z,86.12
2023-04-02T01:05:23.905Z,86.22
2023-04-02T01:06:23.869Z,86.32
2023-04-02T01:07:23.828Z,86.12
2023-04-02T01:08:23.843Z,86.32
2023-04-02T01:09:23.816Z,86.63
2023-04-02T01:10:23.813Z,86.43
2023-04-02T01:11:23.817Z,86.53
2023-04-02T01:12:23.810Z,86.63
2023-04-02T01:13:23.794Z,86.12
2023-04-02T01:14:23.774Z,85.91
2023-04-02T01:15:23.765Z,85.91
2023-04-02T01:16:23.869Z,85.81
2023-04-02T01:17:23.738Z,85.91
2023-04-02T01:18:23.725Z,85.91
2023-04-02T01:19:23.719Z,86.12
2023-04-02T01:20:23.734Z,85.87
2023-04-02T01:21:23.693Z,85.46
2023-04-02T01:22:23.737Z,85.77
2023-04-02T01:23:23.672Z,85.87
2023-04-02T01:24:23.650Z,85.77
2023-04-02T01:25:23.668Z,85.67
2023-04-02T01:26:23.644Z,85.46
2023-04-02T01:27:23.663Z,85.67
2023-04-02T01:28:23.616Z,85.46
2023-04-02T01:29:23.623Z,85.46
2023-04-02T01:30:23.588Z,85.36
2023-04-02T01:31:23.657Z,85.25
2023-04-02T01:32:23.618Z,85.36
2023-04-02T01:33:23.582Z,85.39
2023-04-02T01:34:25.133Z,85.91
2023-04-02T01:35:23.547Z,86.12
2023-04-02T01:36:23.546Z,85.91
2023-04-02T01:37:23.531Z,86.02
2023-04-02T01:38:23.522Z,86.02
2023-04-02T01:39:23.528Z,86.02
2023-04-02T01:40:23.500Z,86.02
2023-04-02T01:41:23.475Z,85.71
2023-04-02T01:42:23.472Z,86.12
2023-04-02T01:43:23.446Z,86.12
2023-04-02T01:44:23.447Z,86.02
2023-04-02T01:45:23.439Z,86.02
2023-04-02T01:46:23.535Z,86.02
2023-04-02T01:47:23.400Z,86.63
2023-04-02T01:48:23.393Z,86.32
2023-04-02T01:49:23.403Z,86.02
2023-04-02T01:50:23.375Z,86.12
2023-04-02T01:51:23.368Z,86.32
2023-04-02T01:52:23.355Z,86.32
2023-04-02T01:53:23.346Z,86.32
2023-04-02T01:54:23.350Z,86.32
2023-04-02T01:55:23.332Z,86.63
2023-04-02T01:56:23.397Z,86.74
2023-04-02T01:57:23.348Z,86.94
2023-04-02T01:58:23.288Z,86.84
2023-04-02T01:59:23.279Z,87.05
2023-04-02T02:00:23.279Z,86.63
2023-04-02T02:01:23.309Z,86.84
2023-04-02T02:02:23.343Z,87.05
2023-04-02T02:03:23.246Z,86.63
2023-04-02T02:04:23.226Z,86.84
2023-04-02T02:05:23.225Z,87.05
2023-04-02T02:06:23.214Z,86.94
2023-04-02T02:07:23.196Z,87.15
2023-04-02T02:08:23.183Z,87.15
2023-04-02T02:09:23.198Z,87.35
2023-04-02T02:10:23.163Z,86.63
2023-04-02T02:11:23.163Z,86.84
2023-04-02T02:12:23.134Z,86.74
2023-04-02T02:13:23.134Z,86.49
2023-04-02T02:14:23.226Z,86.49
2023-04-02T02:15:23.136Z,86.18
2023-04-02T02:16:23.140Z,85.87
2023-04-02T02:17:23.134Z,86.08
2023-04-02T02:18:23.091Z,86.08
2023-04-02T02:19:23.068Z,86.49
2023-04-02T02:20:23.137Z,86.39
2023-04-02T02:21:23.070Z,86.60
2023-04-02T02:22:23.064Z,86.49
2023-04-02T02:23:23.094Z,86.08
2023-04-02T02:24:23.040Z,85.97
2023-04-02T02:25:23.026Z,86.08
2023-04-02T02:26:23.052Z,86.08
2023-04-02T02:27:22.990Z,86.49
2023-04-02T02:28:22.992Z,86.60
2023-04-02T02:29:22.957Z,86.70
2023-04-02T02:30:22.966Z,86.49
2023-04-02T02:31:23.055Z,86.60
2023-04-02T02:32:22.958Z,86.49
2023-04-02T02:33:22.922Z,86.60
2023-04-02T02:34:22.944Z,86.60
2023-04-02T02:35:22.898Z,86.60
2023-04-02T02:36:23.120Z,86.39
2023-04-02T02:37:22.877Z,86.39
2023-04-02T02:38:22.987Z,86.49
2023-04-02T02:39:22.893Z,86.70
2023-04-02T02:40:22.870Z,86.80
2023-04-02T02:41:22.860Z,87.01
2023-04-02T02:42:22.828Z,87.01
2023-04-02T02:43:22.816Z,87.01
2023-04-02T02:44:22.860Z,86.90
2023-04-02T02:45:22.810Z,87.21
2023-04-02T02:46:22.836Z,87.21
2023-04-02T02:47:22.851Z,87.32
2023-04-02T02:48:22.794Z,87.11
2023-04-02T02:49:22.767Z,87.21
2023-04-02T02:50:22.762Z,86.90
2023-04-02T02:51:22.744Z,86.90
2023-04-02T02:52:22.734Z,87.01
2023-04-02T02:53:22.706Z,87.42
2023-04-02T02:54:22.704Z,87.42
2023-04-02T02:55:22.740Z,87.32
2023-04-02T02:56:22.689Z,87.42
2023-04-02T02:57:22.681Z,87.32
2023-04-02T02:58:22.661Z,87.32
2023-04-02T02:59:22.671Z,87.42
2023-04-02T03:00:22.641Z,87.32
2023-04-02T03:01:22.725Z,86.90
2023-04-02T03:02:22.709Z,86.90
2023-04-02T03:03:22.682Z,87.11
2023-04-02T03:04:22.913Z,87.01
2023-04-02T03:05:22.599Z,87.32
2023-04-02T03:06:22.595Z,87.01
2023-04-02T03:07:22.550Z,86.90
2023-04-02T03:08:22.548Z,87.01
2023-04-02T03:09:22.553Z,86.90
2023-04-02T03:10:22.536Z,87.01
2023-04-02T03:11:22.538Z,86.90
2023-04-02T03:12:22.556Z,87.11
2023-04-02T03:13:22.494Z,87.01
2023-04-02T03:14:22.501Z,86.90
2023-04-02T03:15:22.478Z,86.80
2023-04-02T03:16:22.585Z,86.70
2023-04-02T03:17:22.446Z,86.70
2023-04-02T03:18:22.455Z,86.29
2023-04-02T03:19:22.432Z,86.29
2023-04-02T03:20:22.490Z,86.24
2023-04-02T03:21:22.424Z,86.29
2023-04-02T03:22:22.443Z,86.15
2023-04-02T03:23:22.390Z,86.24
2023-04-02T03:24:22.380Z,86.04
2023-04-02T03:25:22.390Z,86.15
2023-04-02T03:26:22.373Z,86.04
2023-04-02T03:27:22.363Z,86.04
2023-04-02T03:28:22.347Z,85.94
2023-04-02T03:29:22.399Z,85.83
2023-04-02T03:30:22.319Z,85.94
2023-04-02T03:31:22.330Z,86.04
2023-04-02T03:32:22.291Z,86.04
2023-04-02T03:33:22.296Z,86.15
2023-04-02T03:34:22.277Z,86.18
2023-04-02T03:35:22.261Z,86.18
2023-04-02T03:36:28.295Z,86.39
2023-04-02T03:37:22.254Z,86.39
2023-04-02T03:38:22.230Z,86.29
2023-04-02T03:39:22.221Z,86.08
2023-04-02T03:40:22.219Z,86.49
2023-04-02T03:41:22.209Z,86.39
2023-04-02T03:42:22.190Z,86.49
2023-04-02T03:43:22.173Z,86.70
2023-04-02T03:44:22.184Z,86.80
2023-04-02T03:45:22.159Z,86.80
2023-04-02T03:46:22.186Z,86.60
2023-04-02T03:47:22.143Z,86.49
2023-04-02T03:48:22.125Z,86.60
2023-04-02T03:49:22.111Z,86.80
2023-04-02T03:50:22.107Z,86.80
2023-04-02T03:51:22.105Z,86.70
2023-04-02T03:52:22.091Z,86.90
2023-04-02T03:53:22.069Z,87.01
2023-04-02T03:54:22.077Z,87.11
2023-04-02T03:55:22.092Z,87.11
2023-04-02T03:56:22.063Z,87.01
2023-04-02T03:57:22.055Z,87.01
2023-04-02T03:58:22.018Z,87.21
2023-04-02T03:59:22.034Z,87.11
2023-04-02T04:00:21.996Z,87.11
2023-04-02T04:01:21.998Z,87.01
2023-04-02T04:02:22.049Z,86.80
2023-04-02T04:03:21.979Z,87.21
2023-04-02T04:04:22.021Z,87.21
2023-04-02T04:05:21.940Z,87.21
2023-04-02T04:06:22.003Z,87.66
2023-04-02T04:07:21.935Z,87.66
2023-04-02T04:08:21.912Z,87.52
2023-04-02T04:09:21.903Z,87.42
2023-04-02T04:10:21.895Z,87.32
2023-04-02T04:11:21.959Z,87.32
2023-04-02T04:12:21.880Z,87.32
2023-04-02T04:13:21.858Z,87.21
2023-04-02T04:14:21.850Z,87.42
2023-04-02T04:15:21.870Z,87.42
2023-04-02T04:16:21.945Z,87.32
2023-04-02T04:17:21.816Z,87.32
2023-04-02T04:18:21.815Z,87.42
2023-04-02T04:19:21.826Z,87.42
2023-04-02T04:20:21.822Z,87.42
2023-04-02T04:21:21.794Z,87.52
2023-04-02T04:22:21.763Z,87.52
2023-04-02T04:23:21.771Z,87.63
2023-04-02T04:24:21.775Z,87.63
2023-04-02T04:25:21.742Z,87.63
2023-04-02T04:26:21.731Z,87.83
2023-04-02T04:27:21.723Z,87.63
2023-04-02T04:28:21.696Z,87.73
2023-04-02T04:29:21.692Z,88.08
2023-04-02T04:30:21.678Z,88.49
2023-04-02T04:31:22.815Z,88.49
2023-04-02T04:32:21.678Z,88.49
2023-04-02T04:33:21.656Z,88.59
2023-04-02T04:34:21.667Z,88.39
2023-04-02T04:35:21.660Z,88.39
2023-04-02T04:36:21.715Z,88.59
2023-04-02T04:37:21.686Z,88.70
2023-04-02T04:38:21.593Z,88.90
2023-04-02T04:39:21.539Z,88.80
2023-04-02T04:40:21.529Z,89.01
2023-04-02T04:41:21.543Z,89.11
2023-04-02T04:42:21.494Z,88.90
2023-04-02T04:43:21.499Z,88.90
2023-04-02T04:44:21.470Z,89.11
2023-04-02T04:45:21.464Z,89.11
2023-04-02T04:46:21.555Z,89.22
2023-04-02T04:47:21.488Z,89.32
2023-04-02T04:48:21.428Z,89.42
2023-04-02T04:49:21.425Z,89.52
2023-04-02T04:50:21.409Z,89.62
2023-04-02T04:51:21.434Z,89.94
2023-04-02T04:52:21.396Z,90.14
2023-04-02T04:53:21.398Z,90.14
2023-04-02T04:54:21.364Z,90.35
2023-04-02T04:55:21.361Z,90.45
2023-04-02T04:56:21.368Z,90.55
2023-04-02T04:57:21.407Z,90.35
2023-04-02T04:58:21.338Z,90.66
2023-04-02T04:59:21.316Z,90.86
2023-04-02T05:00:21.300Z,90.55
2023-04-02T05:01:21.356Z,90.45
2023-04-02T05:02:21.288Z,90.55
2023-04-02T05:03:21.281Z,90.55
2023-04-02T05:04:21.291Z,90.55
2023-04-02T05:05:21.269Z,90.97
2023-04-02T05:06:21.264Z,91.17
2023-04-02T05:07:21.281Z,90.86
2023-04-02T05:08:21.220Z,90.76
2023-04-02T05:09:21.220Z,90.97
2023-04-02T05:10:21.213Z,90.97
2023-04-02T05:11:21.209Z,91.17
2023-04-02T05:12:21.178Z,90.86
2023-04-02T05:13:21.165Z,91.07
2023-04-02T05:14:21.153Z,91.07
2023-04-02T05:15:21.172Z,91.17
2023-04-02T05:16:21.178Z,91.11
2023-04-02T05:17:21.155Z,91.17
2023-04-02T05:18:21.127Z,90.91
2023-04-02T05:19:21.114Z,90.97
2023-04-02T05:20:21.095Z,91.11
2023-04-02T05:21:21.095Z,91.32
2023-04-02T05:22:21.073Z,91.58
2023-04-02T05:23:21.065Z,91.38
2023-04-02T05:24:21.044Z,91.28
2023-04-02T05:25:21.042Z,91.17
2023-04-02T05:26:21.087Z,90.76
2023-04-02T05:27:21.019Z,90.86
2023-04-02T05:28:21.005Z,90.86
2023-04-02T05:29:21.008Z,90.76
2023-04-02T05:30:21.003Z,90.97
2023-04-02T05:31:21.045Z,90.86
2023-04-02T05:32:20.972Z,90.76
2023-04-02T05:33:20.956Z,90.76
2023-04-02T05:34:20.945Z,90.45
2023-04-02T05:35:20.932Z,90.55
2023-04-02T05:36:20.972Z,90.55
2023-04-02T05:37:20.924Z,90.20
2023-04-02T05:38:20.897Z,90.31
2023-04-02T05:39:20.891Z,90.10
2023-04-02T05:40:20.889Z,90.20
2023-04-02T05:41:20.889Z,90.41
2023-04-02T05:42:20.864Z,90.00
2023-04-02T05:43:20.884Z,89.69
2023-04-02T05:44:20.842Z,89.69
2023-04-02T05:45:20.864Z,89.48
2023-04-02T05:46:20.849Z,89.17
2023-04-02T05:47:20.863Z,89.48
2023-04-02T05:48:20.797Z,89.38
2023-04-02T05:49:20.797Z,89.17
2023-04-02T05:50:20.777Z,88.51
2023-04-02T05:51:20.777Z,88.56
2023-04-02T05:52:20.755Z,88.45
2023-04-02T05:53:20.750Z,88.56
2023-04-02T05:54:20.732Z,88.65
2023-04-02T05:55:20.733Z,88.45
2023-04-02T05:56:20.724Z,88.45
2023-04-02T05:57:23.177Z,88.35
2023-04-02T05:58:35.309Z,88.24
2023-04-02T05:59:20.687Z,88.20
2023-04-02T06:00:20.674Z,87.79
2023-04-02T06:01:20.715Z,87.59
2023-04-02T06:02:20.710Z,87.79
2023-04-02T06:03:20.722Z,87.90
2023-04-02T06:04:20.641Z,87.27
2023-04-02T06:05:20.619Z,87.48
2023-04-02T06:06:20.615Z,87.69
2023-04-02T06:07:20.616Z,87.59
2023-04-02T06:08:20.579Z,87.38
2023-04-02T06:09:20.597Z,87.69
2023-04-02T06:10:20.766Z,87.69
2023-04-02T06:11:20.569Z,87.90
2023-04-02T06:12:20.539Z,87.59
2023-04-02T06:13:20.552Z,87.38
2023-04-02T06:14:20.523Z,87.27
2023-04-02T06:15:20.512Z,87.13
2023-04-02T06:16:20.554Z,86.82
2023-04-02T06:17:20.513Z,86.93
2023-04-02T06:18:20.493Z,86.93
2023-04-02T06:19:20.504Z,87.17
2023-04-02T06:20:20.464Z,87.27
2023-04-02T06:21:20.473Z,87.54
2023-04-02T06:22:20.433Z,87.27
2023-04-02T06:23:20.437Z,87.34
2023-04-02T06:24:20.419Z,87.34
2023-04-02T06:25:20.407Z,87.13
2023-04-02T06:26:20.403Z,87.34
2023-04-02T06:27:20.394Z,87.03
2023-04-02T06:28:20.368Z,86.72
2023-04-02T06:29:20.368Z,86.82
2023-04-02T06:30:20.361Z,86.72
2023-04-02T06:31:20.428Z,86.68
2023-04-02T06:32:20.380Z,86.68
2023-04-02T06:33:20.326Z,86.27
2023-04-02T06:34:20.307Z,86.16
2023-04-02T06:35:20.316Z,86.06
2023-04-02T06:36:20.411Z,86.37
2023-04-02T06:37:20.297Z,85.55
2023-04-02T06:38:20.276Z,85.75
2023-04-02T06:39:20.271Z,85.20
2023-04-02T06:40:20.253Z,84.99
2023-04-02T06:41:20.300Z,85.10
2023-04-02T06:42:20.225Z,84.58
2023-04-02T06:43:20.216Z,84.58
2023-04-02T06:44:20.202Z,84.44
2023-04-02T06:45:20.202Z,84.48
2023-04-02T06:46:20.226Z,84.89
2023-04-02T06:47:20.188Z,84.99
2023-04-02T06:48:20.163Z,84.79
2023-04-02T06:49:20.163Z,84.58
2023-04-02T06:50:20.143Z,84.69
2023-04-02T06:51:20.145Z,84.69
2023-04-02T06:52:20.121Z,84.23
2023-04-02T06:53:20.116Z,84.03
2023-04-02T06:54:20.104Z,83.83
2023-04-02T06:55:20.158Z,83.62
2023-04-02T06:56:20.098Z,82.86
2023-04-02T06:57:20.123Z,83.00
2023-04-02T06:58:20.371Z,82.90
2023-04-02T06:59:20.057Z,82.79
2023-04-02T07:00:20.033Z,83.11
2023-04-02T07:01:20.127Z,83.51
2023-04-02T07:02:20.016Z,83.41
2023-04-02T07:03:20.009Z,83.41
2023-04-02T07:04:20.058Z,83.65
2023-04-02T07:05:19.994Z,83.76
2023-04-02T07:06:19.995Z,84.38
2023-04-02T07:07:19.989Z,83.62
2023-04-02T07:08:19.960Z,83.31
2023-04-02T07:09:19.966Z,83.41
2023-04-02T07:10:19.966Z,83.62
2023-04-02T07:11:21.014Z,83.31
2023-04-02T07:12:19.910Z,82.65
2023-04-02T07:13:19.913Z,82.14
2023-04-02T07:14:19.943Z,82.14
2023-04-02T07:15:19.973Z,82.04
2023-04-02T07:16:19.929Z,81.83
2023-04-02T07:17:19.869Z,81.28
2023-04-02T07:18:19.839Z,80.97
2023-04-02T07:19:19.850Z,81.18
2023-04-02T07:20:19.822Z,81.52
2023-04-02T07:21:19.832Z,82.04
2023-04-02T07:22:19.810Z,82.24
2023-04-02T07:23:19.788Z,81.59
2023-04-02T07:24:19.770Z,80.97
2023-04-02T07:25:19.766Z,81.11
2023-04-02T07:26:19.792Z,81.62
2023-04-02T07:27:19.750Z,82.04
2023-04-02T07:28:21.992Z,81.42
2023-04-02T07:29:19.743Z,81.28
2023-04-02T07:30:19.711Z,81.48
2023-04-02T07:31:19.792Z,81.69
2023-04-02T07:32:19.696Z,81.62
2023-04-02T07:33:19.683Z,81.48
2023-04-02T07:34:19.676Z,81.28
2023-04-02T07:35:19.667Z,81.59
2023-04-02T07:36:19.760Z,81.28
2023-04-02T07:37:19.655Z,81.69
2023-04-02T07:38:19.646Z,81.28
2023-04-02T07:39:19.632Z,81.07
2023-04-02T07:40:19.612Z,80.87
2023-04-02T07:41:19.687Z,81.24
2023-04-02T07:42:19.591Z,80.63
2023-04-02T07:43:19.591Z,80.42
2023-04-02T07:44:19.578Z,81.14
2023-04-02T07:45:19.573Z,81.20
2023-04-02T07:46:19.593Z,80.58
2023-04-02T07:47:19.551Z,80.58
2023-04-02T07:48:19.534Z,80.11
2023-04-02T07:49:19.526Z,80.21
2023-04-02T07:50:19.509Z,80.18
2023-04-02T07:51:19.531Z,79.87
2023-04-02T07:52:19.504Z,79.46
2023-04-02T07:53:19.483Z,79.15
2023-04-02T07:54:19.470Z,79.36
2023-04-02T07:55:19.474Z,79.36
2023-04-02T07:56:19.467Z,79.46
2023-04-02T07:57:19.585Z,79.25
2023-04-02T07:58:19.427Z,79.42
2023-04-02T07:59:19.420Z,78.39
2023-04-02T08:00:19.415Z,78.39
2023-04-02T08:01:19.414Z,78.25
2023-04-02T08:02:19.472Z,77.44
2023-04-02T08:03:19.452Z,77.64
2023-04-02T08:04:19.569Z,77.64
2023-04-02T08:05:19.359Z,77.13
2023-04-02T08:06:19.365Z,77.20
2023-04-02T08:07:19.343Z,77.09
2023-04-02T08:08:19.325Z,76.07
2023-04-02T08:09:19.322Z,76.17
2023-04-02T08:10:19.308Z,76.27
2023-04-02T08:11:19.334Z,76.48
2023-04-02T08:12:19.284Z,75.45
2023-04-02T08:13:19.349Z,76.07
2023-04-02T08:14:19.284Z,76.07
2023-04-02T08:15:19.279Z,76.17
2023-04-02T08:16:19.342Z,76.48
2023-04-02T08:17:19.257Z,76.62
2023-04-02T08:18:19.233Z,76.62
2023-04-02T08:19:19.243Z,76.37
2023-04-02T08:20:19.234Z,76.92
2023-04-02T08:21:19.234Z,76.41
2023-04-02T08:22:19.186Z,76.41
2023-04-02T08:23:19.185Z,76.92
2023-04-02T08:24:19.168Z,77.54
2023-04-02T08:25:19.160Z,77.54
2023-04-02T08:26:19.171Z,77.64
2023-04-02T08:27:19.144Z,77.64
2023-04-02T08:28:19.124Z,77.33
2023-04-02T08:29:19.119Z,77.23
2023-04-02T08:30:19.140Z,77.17
2023-04-02T08:31:19.161Z,77.78
2023-04-02T08:32:19.107Z,77.68
2023-04-02T08:33:19.097Z,77.44
2023-04-02T08:34:19.076Z,77.13
2023-04-02T08:35:19.074Z,77.23
2023-04-02T08:36:19.082Z,76.58
2023-04-02T08:37:19.049Z,76.34
2023-04-02T08:38:19.063Z,76.34
2023-04-02T08:39:19.041Z,76.24
2023-04-02T08:40:19.042Z,76.03
2023-04-02T08:41:19.014Z,75.93
2023-04-02T08:42:19.001Z,76.24
2023-04-02T08:43:18.979Z,76.24
2023-04-02T08:44:18.983Z,76.89
2023-04-02T08:45:24.981Z,77.44
2023-04-02T08:46:19.021Z,78.60
2023-04-02T08:47:18.938Z,79.73
2023-04-02T08:48:18.926Z,79.73
2023-04-02T08:49:18.923Z,79.63
2023-04-02T08:50:18.936Z,79.63
2023-04-02T08:51:18.931Z,79.73
2023-04-02T08:52:18.892Z,79.63
2023-04-02T08:53:18.874Z,79.73
2023-04-02T08:54:18.867Z,80.07
2023-04-02T08:55:18.847Z,80.28
2023-04-02T08:56:18.859Z,80.45
2023-04-02T08:57:18.861Z,80.24
2023-04-02T08:58:18.829Z,80.04
2023-04-02T08:59:18.812Z,80.04
2023-04-02T09:00:18.802Z,80.35
2023-04-02T09:01:18.832Z,80.14
2023-04-02T09:02:18.795Z,79.83
2023-04-02T09:03:18.774Z,79.42
2023-04-02T09:04:18.849Z,79.08
2023-04-02T09:05:18.762Z,78.56
2023-04-02T09:06:18.769Z,78.91
2023-04-02T09:07:18.727Z,79.59
2023-04-02T09:08:18.715Z,79.49
2023-04-02T09:09:18.706Z,78.63
2023-04-02T09:10:18.701Z,78.22
2023-04-02T09:11:18.696Z,78.12
2023-04-02T09:12:18.676Z,77.36
2023-04-02T09:13:18.674Z,76.95
2023-04-02T09:14:18.670Z,76.65
2023-04-02T09:15:18.642Z,76.20
2023-04-02T09:16:18.664Z,75.79
2023-04-02T09:17:18.621Z,75.55
2023-04-02T09:18:18.629Z,74.94
2023-04-02T09:19:18.602Z,75.24
2023-04-02T09:20:18.611Z,74.94
2023-04-02T09:21:18.593Z,74.69
2023-04-02T09:22:18.575Z,73.68
2023-04-02T09:23:18.574Z,73.98
2023-04-02T09:24:18.560Z,73.78
2023-04-02T09:25:18.553Z,73.88
2023-04-02T09:26:18.549Z,73.88
2023-04-02T09:27:18.518Z,73.68
2023-04-02T09:28:18.515Z,74.11
2023-04-02T09:29:18.503Z,74.02
2023-04-02T09:30:18.505Z,74.02
2023-04-02T09:31:18.508Z,73.40
2023-04-02T09:32:18.489Z,73.30
2023-04-02T09:33:18.476Z,73.40
2023-04-02T09:34:18.456Z,73.20
2023-04-02T09:35:26.002Z,72.89
2023-04-02T09:36:18.492Z,73.10
2023-04-02T09:37:24.441Z,73.50
2023-04-02T09:38:18.421Z,73.61
2023-04-02T09:39:18.400Z,73.50
2023-04-02T09:40:18.426Z,73.78
2023-04-02T09:41:18.441Z,72.96
2023-04-02T09:42:18.412Z,71.62
2023-04-02T09:43:18.476Z,70.81
2023-04-02T09:44:18.440Z,71.22
2023-04-02T09:45:18.388Z,71.86
2023-04-02T09:46:18.420Z,72.65
2023-04-02T09:47:18.511Z,71.77
2023-04-02T09:48:18.316Z,71.97
2023-04-02T09:49:18.340Z,72.48
2023-04-02T09:50:18.305Z,72.69
2023-04-02T09:51:18.318Z,72.89
2023-04-02T09:52:18.340Z,72.28
2023-04-02T09:53:18.261Z,71.45
2023-04-02T09:54:18.260Z,70.98
2023-04-02T09:55:18.241Z,71.39
2023-04-02T09:56:18.276Z,72.31
2023-04-02T09:57:18.278Z,73.13
2023-04-02T09:58:18.229Z,73.47
2023-04-02T09:59:18.225Z,73.54
2023-04-02T10:00:30.763Z,73.54
2023-04-02T10:01:18.240Z,73.64
2023-04-02T10:02:18.190Z,73.13
2023-04-02T10:03:18.233Z,72.86
2023-04-02T10:04:18.236Z,72.75
2023-04-02T10:05:39.511Z,73.36
2023-04-02T10:06:18.131Z,73.27
2023-04-02T10:07:18.213Z,72.75
2023-04-02T10:08:18.111Z,73.57
2023-04-02T10:09:18.107Z,73.47
2023-04-02T10:10:18.089Z,73.16
2023-04-02T10:11:18.086Z,74.08
2023-04-02T10:12:18.085Z,73.71
2023-04-02T10:13:18.050Z,73.81
2023-04-02T10:14:18.091Z,74.12
2023-04-02T10:15:18.052Z,74.02
2023-04-02T10:16:18.095Z,74.32
2023-04-02T10:17:18.108Z,73.71
2023-04-02T10:18:18.009Z,73.81
2023-04-02T10:19:18.067Z,74.02
2023-04-02T10:20:18.024Z,74.53
2023-04-02T10:21:17.993Z,74.53
2023-04-02T10:22:17.984Z,74.43
2023-04-02T10:23:17.958Z,73.61
2023-04-02T10:24:17.968Z,74.02
2023-04-02T10:25:17.931Z,73.68
2023-04-02T10:26:17.922Z,73.36
2023-04-02T10:27:18.080Z,73.06
2023-04-02T10:28:17.987Z,73.16
2023-04-02T10:29:17.900Z,72.03
2023-04-02T10:30:17.910Z,72.03
2023-04-02T10:31:17.909Z,71.62
2023-04-02T10:32:17.884Z,72.24
2023-04-02T10:33:17.919Z,72.27
2023-04-02T10:34:17.888Z,72.68
2023-04-02T10:35:17.834Z,72.58
2023-04-02T10:36:17.878Z,73.10
2023-04-02T10:37:17.847Z,72.86
2023-04-02T10:38:17.806Z,72.86
2023-04-02T10:39:17.789Z,72.52
2023-04-02T10:40:17.799Z,72.20
2023-04-02T10:41:17.770Z,71.97
2023-04-02T10:42:17.851Z,71.56
2023-04-02T10:43:17.784Z,71.56
2023-04-02T10:44:20.544Z,71.04
2023-04-02T10:45:17.726Z,70.91
2023-04-02T10:46:17.754Z,70.91
2023-04-02T10:47:17.728Z,70.91
2023-04-02T10:48:17.712Z,70.74
2023-04-02T10:49:17.754Z,70.84
2023-04-02T10:50:17.702Z,70.40
2023-04-02T10:51:17.692Z,69.48
2023-04-02T10:52:17.706Z,69.51
2023-04-02T10:53:17.664Z,69.92
2023-04-02T10:54:17.657Z,70.12
2023-04-02T10:55:17.641Z,70.12
2023-04-02T10:56:17.618Z,70.33
2023-04-02T10:57:17.676Z,70.84
2023-04-02T10:58:17.602Z,70.53
2023-04-02T10:59:17.681Z,70.12
2023-04-02T11:00:17.580Z,70.43
2023-04-02T11:01:17.577Z,69.92
2023-04-02T11:02:17.634Z,69.82
2023-04-02T11:03:17.646Z,69.71
2023-04-02T11:04:17.542Z,69.92
2023-04-02T11:05:17.544Z,70.03
2023-04-02T11:06:17.530Z,70.23
2023-04-02T11:07:17.522Z,69.82
2023-04-02T11:08:17.735Z,71.66
2023-04-02T11:09:17.486Z,70.61
2023-04-02T11:10:17.486Z,70.29
2023-04-02T11:11:17.473Z,69.89
2023-04-02T11:12:17.474Z,69.79
2023-04-02T11:13:17.445Z,69.27
2023-04-02T11:14:17.443Z,69.68
2023-04-02T11:15:17.453Z,69.31
2023-04-02T11:16:17.421Z,69.61
2023-04-02T11:17:17.426Z,69.51
2023-04-02T11:18:17.406Z,70.36
2023-04-02T11:19:17.441Z,70.57
2023-04-02T11:20:17.372Z,70.57
2023-04-02T11:21:17.374Z,70.67
2023-04-02T11:22:17.391Z,71.04
2023-04-02T11:23:17.542Z,71.04
2023-04-02T11:24:17.326Z,71.66
2023-04-02T11:25:17.315Z,72.17
2023-04-02T11:26:17.311Z,72.69
2023-04-02T11:27:17.377Z,72.89
2023-04-02T11:28:17.309Z,73.10
2023-04-02T11:29:17.293Z,72.99
2023-04-02T11:30:17.271Z,73.20
2023-04-02T11:31:17.276Z,72.99
2023-04-02T11:32:17.263Z,73.54
2023-04-02T11:33:20.853Z,73.44
2023-04-02T11:34:17.312Z,73.54
2023-04-02T11:35:17.306Z,73.64
2023-04-02T11:36:17.220Z,73.54
2023-04-02T11:37:17.242Z,74.05
2023-04-02T11:38:17.191Z,73.64
2023-04-02T11:39:17.818Z,74.05
2023-04-02T11:40:17.175Z,73.74
2023-04-02T11:41:17.230Z,73.64
2023-04-02T11:42:17.176Z,73.23
2023-04-02T11:43:17.162Z,73.23
2023-04-02T11:44:17.128Z,73.44
2023-04-02T11:45:18.160Z,73.03
2023-04-02T11:46:17.200Z,73.03
2023-04-02T11:47:17.116Z,73.54
2023-04-02T11:48:17.085Z,73.36
2023-04-02T11:49:17.085Z,73.68
2023-04-02T11:50:17.069Z,74.73
2023-04-02T11:51:17.953Z,74.70
2023-04-02T11:52:17.088Z,74.63
2023-04-02T11:53:17.067Z,74.94
2023-04-02T11:54:17.042Z,75.04
2023-04-02T11:55:17.037Z,74.90
2023-04-02T11:56:17.040Z,74.08
2023-04-02T11:57:18.030Z,73.98
2023-04-02T11:58:17.102Z,73.74
2023-04-02T11:59:16.992Z,73.64
2023-04-02T12:00:18.074Z,73.13
2023-04-02T12:01:16.974Z,72.89
2023-04-02T12:02:17.020Z,72.89
2023-04-02T12:03:16.998Z,72.58
2023-04-02T12:04:16.940Z,72.28
2023-04-02T12:05:16.943Z,72.14
2023-04-02T12:06:16.909Z,71.83
2023-04-02T12:07:16.952Z,71.62
2023-04-02T12:08:16.912Z,71.22
2023-04-02T12:09:16.865Z,71.53
2023-04-02T12:10:16.880Z,72.14
2023-04-02T12:11:16.854Z,71.94
2023-04-02T12:12:16.855Z,70.81
2023-04-02T12:13:16.831Z,70.50
2023-04-02T12:14:16.841Z,70.50
2023-04-02T12:15:16.808Z,70.61
2023-04-02T12:16:16.907Z,71.22
2023-04-02T12:17:16.844Z,71.32
2023-04-02T12:18:16.790Z,71.32
2023-04-02T12:19:16.791Z,71.08
2023-04-02T12:20:16.798Z,70.47
2023-04-02T12:21:16.752Z,69.96
2023-04-02T12:22:16.778Z,70.06
2023-04-02T12:23:16.757Z,69.82
2023-04-02T12:24:16.714Z,68.70
2023-04-02T12:25:16.720Z,68.90
2023-04-02T12:26:16.718Z,68.80
2023-04-02T12:27:16.694Z,68.80
2023-04-02T12:28:16.689Z,68.80
2023-04-02T12:29:16.661Z,67.88
2023-04-02T12:30:16.653Z,68.60
2023-04-02T12:31:16.692Z,68.80
2023-04-02T12:32:16.670Z,68.08
2023-04-02T12:33:16.626Z,69.11
2023-04-02T12:34:16.616Z,68.29
2023-04-02T12:35:16.629Z,68.63
2023-04-02T12:36:16.701Z,67.81
2023-04-02T12:37:16.600Z,68.42
2023-04-02T12:38:16.675Z,67.40
2023-04-02T12:39:16.581Z,67.88
2023-04-02T12:40:16.566Z,67.78
2023-04-02T12:41:16.544Z,67.37
2023-04-02T12:42:16.550Z,66.96
2023-04-02T12:43:16.513Z,66.96
2023-04-02T12:44:16.529Z,66.52
2023-04-02T12:45:16.506Z,66.83
2023-04-02T12:46:16.544Z,66.42
2023-04-02T12:47:16.522Z,66.01
2023-04-02T12:48:16.480Z,66.11
2023-04-02T12:49:16.456Z,65.67
2023-04-02T12:50:16.452Z,65.57
2023-04-02T12:51:17.649Z,65.06
2023-04-02T12:52:16.446Z,64.34